createdAt,value
2023-01-29T00:00:09.555Z,16.50
2023-01-29T00:01:12.092Z,14.19
2023-01-29T00:02:14.676Z,12.75
2023-01-29T00:03:17.526Z,16.28
2023-01-29T00:04:20.271Z,14.91
2023-01-29T00:05:29.992Z,11.61
2023-01-29T00:06:27.352Z,12.54
2023-01-29T00:07:29.893Z,10.56
2023-01-29T00:08:32.431Z,13.65
2023-01-29T00:09:35.077Z,12.65
2023-01-29T00:10:38.033Z,18.04
2023-01-29T00:11:40.573Z,13.60
2023-01-29T00:12:43.114Z,12.75
2023-01-29T00:13:45.655Z,13.57
2023-01-29T00:14:48.199Z,16.06
2023-01-29T00:15:50.733Z,20.61
2023-01-29T00:16:53.554Z,17.16
2023-01-29T00:17:56.082Z,23.15
2023-01-29T00:18:58.652Z,16.47
2023-01-29T00:20:01.203Z,15.77
2023-01-29T00:21:03.947Z,15.83
2023-01-29T00:22:06.498Z,13.17
2023-01-29T00:23:09.020Z,18.72
2023-01-29T00:24:11.585Z,17.85
2023-01-29T00:25:14.188Z,14.25
2023-01-29T00:26:16.834Z,15.69
2023-01-29T00:27:19.365Z,12.91
2023-01-29T00:28:21.906Z,18.87
2023-01-29T00:29:24.348Z,15.17
2023-01-29T00:30:27.305Z,14.39
2023-01-29T00:31:29.995Z,13.72
2023-01-29T00:32:32.571Z,14.21
2023-01-29T00:33:35.005Z,12.18
2023-01-29T00:34:37.538Z,13.35
2023-01-29T00:35:40.104Z,14.65
2023-01-29T00:36:43.253Z,13.81
2023-01-29T00:37:45.786Z,14.25
2023-01-29T00:38:48.223Z,15.05
2023-01-29T00:39:50.758Z,12.72
2023-01-29T00:40:53.665Z,14.87
2023-01-29T00:41:56.180Z,15.11
2023-01-29T00:42:58.711Z,20.00
2023-01-29T00:44:01.318Z,18.20
2023-01-29T00:45:03.803Z,18.72
2023-01-29T00:46:06.996Z,19.76
2023-01-29T00:47:09.550Z,17.25
2023-01-29T00:48:12.069Z,17.08
2023-01-29T00:49:14.605Z,19.61
2023-01-29T00:50:17.696Z,15.23
2023-01-29T00:51:20.638Z,15.28
2023-01-29T00:52:23.169Z,14.35
2023-01-29T00:53:25.703Z,13.44
2023-01-29T00:54:28.236Z,16.85
2023-01-29T00:55:30.775Z,16.06
2023-01-29T00:56:33.650Z,15.16
2023-01-29T00:57:36.185Z,18.75
2023-01-29T00:58:38.713Z,19.23
2023-01-29T00:59:41.255Z,14.38
2023-01-29T01:00:44.176Z,12.49
2023-01-29T01:01:47.253Z,15.56
2023-01-29T01:02:49.734Z,15.28
2023-01-29T01:03:52.273Z,13.09
2023-01-29T01:04:54.796Z,16.20
2023-01-29T01:05:57.346Z,14.49
2023-01-29T01:06:59.981Z,14.79
2023-01-29T01:08:02.514Z,16.21
2023-01-29T01:09:05.050Z,13.94
2023-01-29T01:10:08.899Z,16.66
2023-01-29T01:11:11.425Z,18.28
2023-01-29T01:12:13.980Z,14.87
2023-01-29T01:13:16.507Z,16.93
2023-01-29T01:14:19.046Z,14.97
2023-01-29T01:15:21.609Z,17.84
2023-01-29T01:16:24.367Z,12.97
2023-01-29T01:17:26.981Z,17.27
2023-01-29T01:18:29.509Z,16.61
2023-01-29T01:19:32.061Z,17.41
2023-01-29T01:20:34.696Z,16.81
2023-01-29T01:21:37.220Z,20.49
2023-01-29T01:22:39.781Z,17.16
2023-01-29T01:23:42.299Z,12.39
2023-01-29T01:24:44.743Z,17.39
2023-01-29T01:25:47.277Z,17.05
2023-01-29T01:26:50.125Z,12.56
2023-01-29T01:27:52.695Z,14.31
2023-01-29T01:28:55.231Z,19.35
2023-01-29T01:29:57.765Z,15.14
2023-01-29T01:31:00.894Z,15.32
2023-01-29T01:32:03.534Z,14.12
2023-01-29T01:33:06.148Z,20.65
2023-01-29T01:34:08.594Z,16.36
2023-01-29T01:35:11.129Z,17.23
2023-01-29T01:36:14.161Z,17.39
2023-01-29T01:37:16.685Z,16.59
2023-01-29T01:38:19.261Z,17.80
2023-01-29T01:39:21.794Z,16.59
2023-01-29T01:40:24.545Z,15.72
2023-01-29T01:41:27.059Z,14.07
2023-01-29T01:42:29.614Z,14.63
2023-01-29T01:43:32.185Z,22.69
2023-01-29T01:44:34.712Z,25.90
2023-01-29T01:45:37.319Z,24.30
2023-01-29T01:46:40.197Z,24.12
2023-01-29T01:47:42.733Z,24.69
2023-01-29T01:48:45.296Z,20.99
2023-01-29T01:49:47.834Z,16.80
2023-01-29T01:50:50.923Z,12.78
2023-01-29T01:51:53.417Z,18.26
2023-01-29T01:52:55.951Z,15.32
2023-01-29T01:53:58.488Z,16.75
2023-01-29T01:55:01.494Z,14.82
2023-01-29T01:56:04.209Z,15.86
2023-01-29T01:57:06.739Z,13.25
2023-01-29T01:58:09.276Z,17.89
2023-01-29T01:59:11.812Z,13.26
2023-01-29T02:00:15.090Z,13.81
2023-01-29T02:01:17.956Z,12.90
2023-01-29T02:02:20.451Z,13.54
2023-01-29T02:03:22.972Z,13.86
2023-01-29T02:04:25.543Z,13.36
2023-01-29T02:05:28.079Z,16.06
2023-01-29T02:06:30.918Z,12.58
2023-01-29T02:07:33.479Z,17.30
2023-01-29T02:08:35.991Z,15.35
2023-01-29T02:09:38.544Z,15.09
2023-01-29T02:10:41.265Z,14.33
2023-01-29T02:11:43.812Z,15.02
2023-01-29T02:12:46.332Z,11.89
2023-01-29T02:13:48.861Z,15.27
2023-01-29T02:14:51.417Z,15.63
2023-01-29T02:15:53.937Z,16.28
2023-01-29T02:16:56.671Z,12.39
2023-01-29T02:17:59.108Z,18.01
2023-01-29T02:19:01.667Z,15.05
2023-01-29T02:20:04.402Z,15.79
2023-01-29T02:21:06.931Z,15.29
2023-01-29T02:22:09.466Z,16.01
2023-01-29T02:23:12.003Z,13.81
2023-01-29T02:24:14.671Z,14.86
2023-01-29T02:25:17.490Z,15.11
2023-01-29T02:26:20.109Z,15.13
2023-01-29T02:27:22.643Z,14.16
2023-01-29T02:28:25.186Z,14.43
2023-01-29T02:29:27.618Z,16.31
2023-01-29T02:30:30.456Z,17.39
2023-01-29T02:31:33.035Z,14.55
2023-01-29T02:32:35.834Z,14.88
2023-01-29T02:33:38.374Z,16.05
2023-01-29T02:34:40.901Z,14.10
2023-01-29T02:35:43.438Z,14.82
2023-01-29T02:36:46.077Z,16.43
2023-01-29T02:37:48.605Z,14.44
2023-01-29T02:38:51.041Z,16.74
2023-01-29T02:39:53.589Z,15.77
2023-01-29T02:40:56.280Z,14.69
2023-01-29T02:41:58.829Z,14.23
2023-01-29T02:43:01.358Z,14.88
2023-01-29T02:44:03.911Z,20.35
2023-01-29T02:45:06.431Z,15.76
2023-01-29T02:46:09.567Z,19.43
2023-01-29T02:47:12.245Z,15.19
2023-01-29T02:48:14.793Z,14.96
2023-01-29T02:49:17.329Z,13.99
2023-01-29T02:50:19.965Z,13.24
2023-01-29T02:51:22.542Z,17.06
2023-01-29T02:52:25.082Z,15.55
2023-01-29T02:53:27.617Z,15.29
2023-01-29T02:54:30.153Z,14.76
2023-01-29T02:55:32.697Z,13.57
2023-01-29T02:56:35.364Z,15.50
2023-01-29T02:57:37.913Z,14.07
2023-01-29T02:58:40.621Z,16.02
2023-01-29T02:59:43.154Z,17.63
2023-01-29T03:00:45.819Z,15.39
2023-01-29T03:01:48.462Z,15.17
2023-01-29T03:02:50.997Z,15.18
2023-01-29T03:03:53.551Z,15.34
2023-01-29T03:04:56.085Z,18.55
2023-01-29T03:05:58.629Z,16.74
2023-01-29T03:07:01.545Z,17.93
2023-01-29T03:08:04.039Z,16.86
2023-01-29T03:09:06.575Z,18.46
2023-01-29T03:10:10.126Z,16.71
2023-01-29T03:11:12.661Z,23.19
2023-01-29T03:12:15.251Z,19.50
2023-01-29T03:13:17.778Z,14.67
2023-01-29T03:14:20.321Z,14.43
2023-01-29T03:15:22.853Z,15.43
2023-01-29T03:16:25.501Z,15.88
2023-01-29T03:17:28.065Z,14.99
2023-01-29T03:18:30.612Z,17.11
2023-01-29T03:19:33.152Z,14.56
2023-01-29T03:20:35.892Z,16.39
2023-01-29T03:21:38.426Z,16.57
2023-01-29T03:22:41.270Z,15.55
2023-01-29T03:23:43.826Z,14.24
2023-01-29T03:24:46.376Z,14.89
2023-01-29T03:25:48.881Z,15.65
2023-01-29T03:26:51.822Z,18.86
2023-01-29T03:27:54.417Z,14.70
2023-01-29T03:28:57.400Z,16.37
2023-01-29T03:29:59.834Z,17.61
2023-01-29T03:31:02.403Z,16.20
2023-01-29T03:32:04.925Z,17.23
2023-01-29T03:33:07.580Z,14.44
2023-01-29T03:34:10.125Z,16.21
2023-01-29T03:35:12.564Z,22.43
2023-01-29T03:36:15.361Z,15.31
2023-01-29T03:37:17.885Z,25.07
2023-01-29T03:38:20.478Z,59.45
2023-01-29T03:39:22.985Z,89.03
2023-01-29T03:40:25.634Z,84.11
2023-01-29T03:41:28.171Z,91.53
2023-01-29T03:42:30.707Z,83.09
2023-01-29T03:43:33.278Z,68.11
2023-01-29T03:44:35.817Z,50.88
2023-01-29T03:45:38.389Z,39.44
2023-01-29T03:46:41.392Z,34.83
2023-01-29T03:47:44.217Z,21.20
2023-01-29T03:48:46.795Z,18.10
2023-01-29T03:49:49.344Z,22.89
2023-01-29T03:50:51.983Z,26.75
2023-01-29T03:51:54.570Z,16.71
2023-01-29T03:52:57.097Z,24.29
2023-01-29T03:53:59.667Z,19.36
2023-01-29T03:55:02.213Z,25.58
2023-01-29T03:56:04.948Z,24.94
2023-01-29T03:57:07.480Z,24.73
2023-01-29T03:58:10.020Z,20.73
2023-01-29T03:59:12.611Z,15.58
2023-01-29T04:00:15.859Z,20.78
2023-01-29T04:01:20.257Z,14.64
2023-01-29T04:02:22.858Z,20.71
2023-01-29T04:03:25.399Z,20.73
2023-01-29T04:04:28.012Z,15.34
2023-01-29T04:05:30.625Z,18.61
2023-01-29T04:06:33.558Z,15.42
2023-01-29T04:07:36.107Z,13.51
2023-01-29T04:08:38.625Z,18.13
2023-01-29T04:09:41.344Z,14.62
2023-01-29T04:10:43.990Z,15.13
2023-01-29T04:11:46.545Z,15.11
2023-01-29T04:12:49.079Z,16.82
2023-01-29T04:13:51.612Z,14.27
2023-01-29T04:14:54.160Z,13.45
2023-01-29T04:15:56.695Z,17.49
2023-01-29T04:16:59.644Z,17.26
2023-01-29T04:18:02.182Z,14.53
2023-01-29T04:19:04.745Z,17.89
2023-01-29T04:20:07.678Z,17.21
2023-01-29T04:21:10.226Z,16.41
2023-01-29T04:22:12.717Z,18.02
2023-01-29T04:23:15.242Z,15.42
2023-01-29T04:24:17.818Z,17.99
2023-01-29T04:25:20.414Z,18.98
2023-01-29T04:26:23.067Z,12.92
2023-01-29T04:27:25.606Z,17.16
2023-01-29T04:28:28.143Z,18.04
2023-01-29T04:29:30.674Z,16.58
2023-01-29T04:30:33.508Z,18.54
2023-01-29T04:31:36.234Z,17.19
2023-01-29T04:32:38.833Z,15.21
2023-01-29T04:33:41.380Z,17.29
2023-01-29T04:34:43.904Z,16.63
2023-01-29T04:35:46.438Z,21.58
2023-01-29T04:36:49.197Z,20.62
2023-01-29T04:37:51.770Z,17.53
2023-01-29T04:38:54.326Z,19.76
2023-01-29T04:39:56.843Z,13.93
2023-01-29T04:40:59.503Z,18.24
2023-01-29T04:42:02.018Z,21.25
2023-01-29T04:43:04.612Z,16.43
2023-01-29T04:44:07.148Z,17.03
2023-01-29T04:45:09.710Z,48.63
2023-01-29T04:46:12.525Z,16.04
2023-01-29T04:47:15.086Z,17.27
2023-01-29T04:48:17.641Z,19.07
2023-01-29T04:49:20.189Z,15.29
2023-01-29T04:50:22.927Z,16.27
2023-01-29T04:51:25.467Z,15.60
2023-01-29T04:52:28.011Z,16.45
2023-01-29T04:53:30.581Z,16.28
2023-01-29T04:54:33.118Z,16.45
2023-01-29T04:55:35.653Z,18.94
2023-01-29T04:56:38.587Z,18.48
2023-01-29T04:57:41.122Z,22.57
2023-01-29T04:58:43.607Z,19.58
2023-01-29T04:59:46.134Z,18.77
2023-01-29T05:00:48.996Z,16.71
2023-01-29T05:01:51.449Z,23.51
2023-01-29T05:02:54.051Z,18.60
2023-01-29T05:03:56.734Z,20.76
2023-01-29T05:04:59.278Z,17.80
2023-01-29T05:06:01.804Z,20.62
2023-01-29T05:07:04.443Z,18.49
2023-01-29T05:08:06.966Z,21.10
2023-01-29T05:09:09.562Z,20.13
2023-01-29T05:10:13.871Z,21.75
2023-01-29T05:11:16.627Z,19.12
2023-01-29T05:12:19.073Z,20.61
2023-01-29T05:13:21.593Z,20.43
2023-01-29T05:14:24.063Z,29.57
2023-01-29T05:15:26.606Z,22.00
2023-01-29T05:16:29.341Z,19.40
2023-01-29T05:17:31.885Z,15.95
2023-01-29T05:18:34.419Z,17.47
2023-01-29T05:19:36.954Z,20.58
2023-01-29T05:20:39.975Z,18.46
2023-01-29T05:21:42.438Z,20.35
2023-01-29T05:22:44.968Z,17.69
2023-01-29T05:23:47.816Z,20.72
2023-01-29T05:24:50.399Z,17.17
2023-01-29T05:25:52.930Z,17.07
2023-01-29T05:26:56.387Z,19.75
2023-01-29T05:27:58.918Z,20.29
2023-01-29T05:29:01.449Z,16.87
2023-01-29T05:30:04.091Z,18.66
2023-01-29T05:31:06.713Z,24.21
2023-01-29T05:32:09.469Z,22.19
2023-01-29T05:33:11.997Z,24.15
2023-01-29T05:34:14.523Z,24.14
2023-01-29T05:35:16.959Z,21.11
2023-01-29T05:36:19.794Z,24.92
2023-01-29T05:37:22.327Z,19.70
2023-01-29T05:38:24.875Z,19.27
2023-01-29T05:39:27.410Z,23.35
2023-01-29T05:40:30.149Z,22.22
2023-01-29T05:41:32.684Z,20.37
2023-01-29T05:42:35.223Z,21.67
2023-01-29T05:43:37.755Z,17.81
2023-01-29T05:44:40.287Z,19.61
2023-01-29T05:45:42.820Z,24.82
2023-01-29T05:46:45.575Z,21.44
2023-01-29T05:47:48.097Z,23.41
2023-01-29T05:48:50.629Z,24.25
2023-01-29T05:49:53.064Z,20.37
2023-01-29T05:50:55.897Z,23.62
2023-01-29T05:51:58.433Z,26.71
2023-01-29T05:53:00.894Z,20.87
2023-01-29T05:54:03.417Z,19.67
2023-01-29T05:55:05.954Z,24.71
2023-01-29T05:56:09.302Z,24.51
2023-01-29T05:57:11.856Z,19.81
2023-01-29T05:58:14.408Z,21.67
2023-01-29T05:59:16.921Z,25.23
2023-01-29T06:00:19.664Z,27.02
2023-01-29T06:01:22.200Z,25.35
2023-01-29T06:02:24.732Z,22.89
2023-01-29T06:03:27.287Z,25.96
2023-01-29T06:04:29.829Z,29.56
2023-01-29T06:05:32.361Z,26.38
2023-01-29T06:06:35.015Z,27.29
2023-01-29T06:07:37.541Z,25.23
2023-01-29T06:08:40.076Z,25.75
2023-01-29T06:09:42.660Z,20.81
2023-01-29T06:10:45.393Z,21.73
2023-01-29T06:11:47.927Z,28.53
2023-01-29T06:12:50.464Z,26.20
2023-01-29T06:13:53.017Z,22.35
2023-01-29T06:14:55.575Z,25.65
2023-01-29T06:15:58.049Z,22.22
2023-01-29T06:17:01.155Z,26.31
2023-01-29T06:18:04.016Z,24.46
2023-01-29T06:19:06.530Z,25.18
2023-01-29T06:20:10.112Z,58.36
2023-01-29T06:21:12.654Z,34.28
2023-01-29T06:22:15.177Z,26.62
2023-01-29T06:23:17.653Z,25.67
2023-01-29T06:24:20.185Z,28.77
2023-01-29T06:25:22.845Z,27.35
2023-01-29T06:26:25.743Z,24.33
2023-01-29T06:27:28.302Z,28.23
2023-01-29T06:28:30.827Z,23.39
2023-01-29T06:29:33.374Z,25.70
2023-01-29T06:30:36.147Z,24.00
2023-01-29T06:31:39.694Z,23.05
2023-01-29T06:32:42.746Z,28.20
2023-01-29T06:33:45.335Z,26.35
2023-01-29T06:34:49.708Z,28.66
2023-01-29T06:35:52.281Z,32.57
2023-01-29T06:36:54.908Z,29.74
2023-01-29T06:37:57.440Z,24.61
2023-01-29T06:39:00.009Z,22.31
2023-01-29T06:40:02.845Z,24.63
2023-01-29T06:41:05.395Z,21.51
2023-01-29T06:42:07.928Z,25.61
2023-01-29T06:43:10.360Z,30.55
2023-01-29T06:44:12.900Z,22.57
2023-01-29T06:45:15.755Z,25.97
2023-01-29T06:46:18.588Z,29.65
2023-01-29T06:47:21.132Z,24.49
2023-01-29T06:48:23.662Z,23.09
2023-01-29T06:49:26.203Z,29.17
2023-01-29T06:50:28.932Z,32.11
2023-01-29T06:51:31.528Z,24.60
2023-01-29T06:52:34.081Z,31.23
2023-01-29T06:53:36.606Z,34.51
2023-01-29T06:54:39.144Z,29.16
2023-01-29T06:55:41.679Z,38.02
2023-01-29T06:56:44.209Z,27.84
2023-01-29T06:57:46.795Z,31.21
2023-01-29T06:58:49.332Z,23.93
2023-01-29T06:59:51.863Z,25.22
2023-01-29T07:00:54.742Z,23.48
2023-01-29T07:01:57.460Z,24.56
2023-01-29T07:03:00.166Z,23.99
2023-01-29T07:04:02.807Z,25.39
2023-01-29T07:05:05.362Z,33.81
2023-01-29T07:06:08.745Z,31.96
2023-01-29T07:07:11.280Z,30.98
2023-01-29T07:08:13.897Z,23.86
2023-01-29T07:09:16.437Z,24.45
2023-01-29T07:10:19.361Z,31.75
2023-01-29T07:11:22.040Z,31.46
2023-01-29T07:12:24.608Z,38.69
2023-01-29T07:13:27.190Z,26.75
2023-01-29T07:14:29.628Z,27.64
2023-01-29T07:15:32.184Z,26.64
2023-01-29T07:16:35.667Z,25.52
2023-01-29T07:17:38.361Z,33.81
2023-01-29T07:18:40.963Z,30.70
2023-01-29T07:19:43.516Z,28.41
2023-01-29T07:20:46.410Z,33.91
2023-01-29T07:21:48.947Z,25.28
2023-01-29T07:22:51.482Z,26.49
2023-01-29T07:23:54.144Z,27.59
2023-01-29T07:24:56.804Z,26.70
2023-01-29T07:25:59.352Z,23.11
2023-01-29T07:27:02.408Z,28.96
2023-01-29T07:28:04.965Z,28.65
2023-01-29T07:29:07.569Z,30.30
2023-01-29T07:30:10.931Z,31.23
2023-01-29T07:31:13.582Z,30.40
2023-01-29T07:32:16.152Z,29.71
2023-01-29T07:33:18.922Z,26.73
2023-01-29T07:34:21.503Z,27.40
2023-01-29T07:35:24.033Z,28.01
2023-01-29T07:36:26.684Z,23.07
2023-01-29T07:37:29.215Z,24.65
2023-01-29T07:38:31.749Z,24.45
2023-01-29T07:39:34.324Z,31.71
2023-01-29T07:40:37.072Z,28.33
2023-01-29T07:41:39.602Z,26.04
2023-01-29T07:42:42.164Z,32.51
2023-01-29T07:43:44.675Z,38.53
2023-01-29T07:44:47.246Z,30.27
2023-01-29T07:45:49.815Z,37.03
2023-01-29T07:46:52.517Z,36.84
2023-01-29T07:47:55.054Z,46.81
2023-01-29T07:48:57.592Z,29.06
2023-01-29T07:50:00.173Z,29.69
2023-01-29T07:51:02.709Z,29.79
2023-01-29T07:52:05.245Z,29.13
2023-01-29T07:53:07.785Z,30.06
2023-01-29T07:54:10.334Z,27.67
2023-01-29T07:55:12.905Z,30.65
2023-01-29T07:56:15.655Z,30.49
2023-01-29T07:57:18.175Z,25.10
2023-01-29T07:58:20.708Z,33.35
2023-01-29T07:59:23.245Z,36.29
2023-01-29T08:00:26.034Z,30.76
2023-01-29T08:01:28.686Z,25.87
2023-01-29T08:02:31.260Z,28.55
2023-01-29T08:03:33.755Z,26.80
2023-01-29T08:04:36.197Z,29.09
2023-01-29T08:05:38.771Z,29.88
2023-01-29T08:06:41.719Z,28.21
2023-01-29T08:07:49.233Z,22.43
2023-01-29T08:08:48.615Z,25.86
2023-01-29T08:09:51.158Z,31.83
2023-01-29T08:10:53.938Z,34.49
2023-01-29T08:11:56.495Z,28.14
2023-01-29T08:12:59.029Z,26.54
2023-01-29T08:14:01.588Z,32.72
2023-01-29T08:15:04.095Z,25.65
2023-01-29T08:16:07.409Z,25.61
2023-01-29T08:17:09.943Z,27.47
2023-01-29T08:18:12.458Z,22.57
2023-01-29T08:19:14.991Z,28.79
2023-01-29T08:20:18.272Z,31.36
2023-01-29T08:21:21.238Z,23.72
2023-01-29T08:22:23.753Z,24.52
2023-01-29T08:23:26.289Z,30.33
2023-01-29T08:24:41.482Z,30.17
2023-01-29T08:25:33.242Z,24.39
2023-01-29T08:26:36.470Z,26.99
2023-01-29T08:27:39.012Z,28.41
2023-01-29T08:28:41.556Z,21.23
2023-01-29T08:29:44.090Z,28.76
2023-01-29T08:30:47.056Z,29.86
2023-01-29T08:31:50.236Z,29.01
2023-01-29T08:32:53.032Z,23.02
2023-01-29T08:33:55.589Z,32.45
2023-01-29T08:34:58.125Z,30.22
2023-01-29T08:36:00.660Z,24.76
2023-01-29T08:37:03.230Z,27.85
2023-01-29T08:38:05.771Z,27.99
2023-01-29T08:39:08.303Z,32.80
2023-01-29T08:40:11.341Z,28.02
2023-01-29T08:41:13.891Z,31.96
2023-01-29T08:42:16.491Z,30.87
2023-01-29T08:43:19.023Z,27.32
2023-01-29T08:44:21.559Z,27.13
2023-01-29T08:45:24.104Z,27.01
2023-01-29T08:46:26.736Z,35.45
2023-01-29T08:47:29.818Z,32.23
2023-01-29T08:48:34.100Z,27.06
2023-01-29T08:49:36.692Z,24.67
2023-01-29T08:50:39.635Z,28.18
2023-01-29T08:51:42.178Z,24.13
2023-01-29T08:52:44.770Z,24.59
2023-01-29T08:53:47.397Z,24.93
2023-01-29T08:54:49.933Z,23.63
2023-01-29T08:55:52.506Z,28.97
2023-01-29T08:56:55.358Z,23.43
2023-01-29T08:57:57.941Z,27.37
2023-01-29T08:59:00.478Z,22.49
2023-01-29T09:00:03.349Z,30.88
2023-01-29T09:01:05.870Z,21.43
2023-01-29T09:02:08.419Z,25.05
2023-01-29T09:03:10.978Z,25.95
2023-01-29T09:04:13.519Z,25.12
2023-01-29T09:05:16.422Z,23.49
2023-01-29T09:06:19.720Z,22.67
2023-01-29T09:07:22.252Z,20.73
2023-01-29T09:08:24.837Z,25.32
2023-01-29T09:09:27.386Z,23.11
2023-01-29T09:10:30.034Z,24.87
2023-01-29T09:11:32.570Z,27.57
2023-01-29T09:12:35.138Z,24.72
2023-01-29T09:13:37.729Z,26.21
2023-01-29T09:14:40.282Z,24.33
2023-01-29T09:15:42.827Z,28.06
2023-01-29T09:16:45.486Z,23.36
2023-01-29T09:17:48.003Z,29.38
2023-01-29T09:18:50.625Z,32.86
2023-01-29T09:19:53.192Z,27.43
2023-01-29T09:20:55.864Z,27.36
2023-01-29T09:21:58.406Z,27.80
2023-01-29T09:23:00.930Z,22.61
2023-01-29T09:24:03.504Z,26.87
2023-01-29T09:25:06.037Z,25.57
2023-01-29T09:26:09.212Z,27.93
2023-01-29T09:27:11.715Z,26.91
2023-01-29T09:28:14.247Z,26.09
2023-01-29T09:29:16.832Z,26.93
2023-01-29T09:30:19.472Z,21.89
2023-01-29T09:31:22.062Z,25.05
2023-01-29T09:32:52.168Z,24.91
2023-01-29T09:33:28.975Z,23.22
2023-01-29T09:34:31.561Z,27.80
2023-01-29T09:35:34.092Z,21.73
2023-01-29T09:36:36.731Z,23.74
2023-01-29T09:37:39.266Z,23.94
2023-01-29T09:38:41.789Z,26.79
2023-01-29T09:39:44.274Z,23.29
2023-01-29T09:40:47.109Z,21.47
2023-01-29T09:41:49.759Z,25.86
2023-01-29T09:42:52.298Z,22.37
2023-01-29T09:43:54.822Z,24.46
2023-01-29T09:44:57.334Z,22.47
2023-01-29T09:45:59.907Z,23.96
2023-01-29T09:47:02.513Z,24.82
2023-01-29T09:48:05.038Z,24.72
2023-01-29T09:49:07.571Z,23.89
2023-01-29T09:50:10.864Z,21.46
2023-01-29T09:51:13.401Z,27.47
2023-01-29T09:52:15.943Z,26.65
2023-01-29T09:53:18.471Z,25.91
2023-01-29T09:54:21.005Z,24.53
2023-01-29T09:55:23.596Z,31.76
2023-01-29T09:56:26.232Z,23.85
2023-01-29T09:57:28.775Z,25.50
2023-01-29T09:58:31.310Z,21.10
2023-01-29T09:59:33.859Z,29.33
2023-01-29T10:00:36.638Z,23.24
2023-01-29T10:01:39.163Z,32.54
2023-01-29T10:02:41.931Z,28.58
2023-01-29T10:03:44.460Z,30.49
2023-01-29T10:04:47.032Z,31.99
2023-01-29T10:05:49.565Z,25.07
2023-01-29T10:06:52.317Z,31.83
2023-01-29T10:07:54.835Z,21.78
2023-01-29T10:08:57.382Z,26.73
2023-01-29T10:09:59.915Z,27.92
2023-01-29T10:11:02.487Z,29.29
2023-01-29T10:12:05.013Z,28.54
2023-01-29T10:13:07.561Z,28.83
2023-01-29T10:14:10.078Z,25.73
2023-01-29T10:15:12.607Z,20.31
2023-01-29T10:16:15.813Z,26.76
2023-01-29T10:17:18.420Z,26.35
2023-01-29T10:18:21.213Z,25.76
2023-01-29T10:19:23.742Z,35.11
2023-01-29T10:20:26.679Z,25.06
2023-01-29T10:21:29.259Z,24.13
2023-01-29T10:22:31.793Z,24.15
2023-01-29T10:23:35.016Z,28.58
2023-01-29T10:24:37.659Z,27.90
2023-01-29T10:25:40.193Z,31.44
2023-01-29T10:26:43.143Z,26.17
2023-01-29T10:27:45.698Z,29.83
2023-01-29T10:28:48.230Z,27.87
2023-01-29T10:29:50.782Z,26.49
2023-01-29T10:30:53.580Z,23.91
2023-01-29T10:31:56.553Z,23.92
2023-01-29T10:32:59.337Z,24.97
2023-01-29T10:34:03.065Z,32.35
2023-01-29T10:35:05.714Z,21.51
2023-01-29T10:36:10.287Z,27.04
2023-01-29T10:37:12.843Z,25.37
2023-01-29T10:38:15.378Z,25.95
2023-01-29T10:39:17.927Z,32.19
2023-01-29T10:40:21.080Z,28.42
2023-01-29T10:41:23.612Z,28.23
2023-01-29T10:42:26.206Z,30.01
2023-01-29T10:43:28.719Z,27.49
2023-01-29T10:44:31.259Z,25.64
2023-01-29T10:45:33.805Z,20.19
2023-01-29T10:46:36.535Z,32.46
2023-01-29T10:47:39.161Z,29.23
2023-01-29T10:48:42.031Z,23.34
2023-01-29T10:49:44.504Z,25.87
2023-01-29T10:50:47.145Z,22.87
2023-01-29T10:51:49.672Z,23.71
2023-01-29T10:52:52.156Z,25.99
2023-01-29T10:53:54.698Z,29.29
2023-01-29T10:54:57.244Z,26.78
2023-01-29T10:56:00.418Z,24.75
2023-01-29T10:57:03.825Z,70.70
2023-01-29T10:58:06.419Z,44.13
2023-01-29T10:59:08.935Z,22.33
2023-01-29T11:00:12.178Z,27.77
2023-01-29T11:01:14.799Z,52.94
2023-01-29T11:02:17.612Z,45.08
2023-01-29T11:03:27.947Z,30.45
2023-01-29T11:04:24.595Z,24.83
2023-01-29T11:05:27.133Z,25.33
2023-01-29T11:06:29.709Z,24.31
2023-01-29T11:07:32.426Z,25.56
2023-01-29T11:17:15.467Z,30.49
2023-01-29T11:18:18.085Z,29.97
2023-01-29T11:19:21.114Z,27.57
2023-01-29T11:20:24.368Z,30.37
2023-01-29T11:21:26.911Z,32.83
2023-01-29T11:22:29.491Z,26.43
2023-01-29T11:23:32.044Z,24.61
2023-01-29T11:24:34.574Z,33.49
2023-01-29T11:25:37.113Z,33.03
2023-01-29T11:26:40.161Z,25.78
2023-01-29T11:27:42.792Z,25.41
2023-01-29T11:28:45.375Z,26.17
2023-01-29T11:29:48.120Z,24.15
2023-01-29T11:30:51.088Z,34.34
2023-01-29T11:31:53.807Z,23.34
2023-01-29T11:32:56.425Z,31.77
2023-01-29T11:33:58.957Z,23.03
2023-01-29T11:35:01.513Z,25.45
2023-01-29T11:36:04.142Z,25.83
2023-01-29T11:37:06.683Z,23.75
2023-01-29T11:38:09.264Z,20.52
2023-01-29T11:39:11.793Z,46.63
2023-01-29T11:40:15.369Z,50.04
2023-01-29T11:41:19.978Z,37.67
2023-01-29T11:42:22.352Z,33.54
2023-01-29T11:43:25.010Z,28.24
2023-01-29T11:44:27.555Z,24.87
2023-01-29T11:45:30.100Z,42.71
2023-01-29T11:46:32.957Z,32.93
2023-01-29T11:47:35.473Z,35.38
2023-01-29T11:48:38.029Z,28.46
2023-01-29T11:49:40.557Z,22.97
2023-01-29T11:50:43.298Z,28.94
2023-01-29T11:51:45.846Z,28.96
2023-01-29T11:52:48.378Z,30.61
2023-01-29T11:53:50.942Z,25.58
2023-01-29T11:54:53.480Z,23.65
2023-01-29T11:55:56.025Z,28.13
2023-01-29T11:56:58.653Z,26.98
2023-01-29T11:58:01.190Z,23.62
2023-01-29T11:59:03.771Z,23.49
2023-01-29T12:00:06.703Z,25.27
2023-01-29T12:01:09.228Z,20.70
2023-01-29T12:02:11.764Z,23.01
2023-01-29T12:03:14.311Z,27.95
2023-01-29T12:04:16.868Z,29.35
2023-01-29T12:05:19.401Z,27.46
2023-01-29T12:06:22.044Z,25.58
2023-01-29T12:07:24.581Z,24.11
2023-01-29T12:08:27.144Z,33.34
2023-01-29T12:09:29.713Z,48.97
2023-01-29T12:10:32.446Z,36.14
2023-01-29T12:11:34.988Z,44.22
2023-01-29T12:12:37.546Z,29.27
2023-01-29T12:13:40.065Z,29.18
2023-01-29T12:14:42.837Z,31.52
2023-01-29T12:15:45.371Z,29.37
2023-01-29T12:16:48.220Z,33.74
2023-01-29T12:17:50.749Z,28.37
2023-01-29T12:18:53.306Z,31.11
2023-01-29T12:19:56.120Z,31.99
2023-01-29T12:20:58.894Z,31.67
2023-01-29T12:22:03.097Z,34.62
2023-01-29T12:23:05.787Z,33.39
2023-01-29T12:24:08.728Z,29.12
2023-01-29T12:25:11.289Z,27.73
2023-01-29T12:26:14.128Z,26.27
2023-01-29T12:27:16.687Z,27.94
2023-01-29T12:28:19.351Z,32.28
2023-01-29T12:29:21.888Z,27.25
2023-01-29T12:30:24.819Z,27.67
2023-01-29T12:31:27.455Z,29.18
2023-01-29T12:32:30.028Z,30.41
2023-01-29T12:33:32.607Z,25.11
2023-01-29T12:34:35.246Z,25.27
2023-01-29T12:35:40.653Z,28.01
2023-01-29T12:36:45.297Z,28.84
2023-01-29T12:37:47.840Z,23.27
2023-01-29T12:38:50.377Z,24.75
2023-01-29T12:39:52.921Z,24.59
2023-01-29T12:40:56.109Z,29.14
2023-01-29T12:41:58.630Z,27.87
2023-01-29T12:43:01.165Z,32.68
2023-01-29T12:44:03.721Z,29.73
2023-01-29T12:45:06.250Z,28.20
2023-01-29T12:46:09.736Z,23.70
2023-01-29T12:47:12.261Z,36.79
2023-01-29T12:48:14.803Z,30.55
2023-01-29T12:49:17.323Z,27.39
2023-01-29T12:50:20.083Z,39.36
2023-01-29T12:51:22.647Z,28.33
2023-01-29T12:52:25.186Z,30.37
2023-01-29T12:53:29.140Z,27.91
2023-01-29T12:54:31.692Z,27.16
2023-01-29T12:55:34.235Z,26.21
2023-01-29T12:56:37.043Z,34.64
2023-01-29T12:57:39.540Z,29.41
2023-01-29T12:58:42.068Z,31.59
2023-01-29T12:59:44.615Z,27.37
2023-01-29T13:00:47.388Z,31.12
2023-01-29T13:01:50.018Z,34.97
2023-01-29T13:02:52.598Z,33.53
2023-01-29T13:03:55.385Z,31.68
2023-01-29T13:04:57.917Z,30.09
2023-01-29T13:06:00.446Z,30.91
2023-01-29T13:07:03.042Z,34.63
2023-01-29T13:08:05.580Z,38.75
2023-01-29T13:09:08.114Z,33.93
2023-01-29T13:10:11.061Z,34.11
2023-01-29T13:11:13.591Z,26.14
2023-01-29T13:12:16.155Z,29.41
2023-01-29T13:13:18.690Z,25.11
2023-01-29T13:14:21.220Z,30.21
2023-01-29T13:15:23.759Z,26.78
2023-01-29T13:16:26.566Z,28.49
2023-01-29T13:17:29.168Z,29.10
2023-01-29T13:18:31.699Z,28.66
2023-01-29T13:19:34.238Z,35.42
2023-01-29T13:20:36.869Z,30.93
2023-01-29T13:21:39.401Z,28.61
2023-01-29T13:22:41.873Z,29.32
2023-01-29T13:23:44.740Z,38.74
2023-01-29T13:24:58.689Z,28.47
2023-01-29T13:25:51.631Z,31.21
2023-01-29T13:26:54.686Z,32.33
2023-01-29T13:27:57.256Z,32.29
2023-01-29T13:28:59.821Z,31.29
2023-01-29T13:30:02.660Z,33.55
2023-01-29T13:31:05.207Z,45.07
2023-01-29T13:32:07.778Z,31.75
2023-01-29T13:33:12.862Z,27.11
2023-01-29T13:34:17.535Z,35.15
2023-01-29T13:35:20.474Z,30.98